IGO5312 VEHO-VECC
Flight info
| Callsign | IGO5312 |
|---|---|
| Flight time | N/A |
| Altitude | 38000 |
| Route | KALAM W51 GGT R472 RAJ DCT AGODA AGODA2A |
| Aircraft | A320/M-SDE3FGHIRWY/LB1 |
Departure
| Time | 2026-05-08 04:49 |
|---|---|
| Airport | Itanagar Donyi Polo Hollongi Airport (VEHO) |
Arrival
| Time | N/A |
|---|---|
| Airport | Netaji Subhash Chandra Bose International Airport (VECC) |
| Time | Latitude | Longitude | Altitude | Speed | Heading |
|---|---|---|---|---|---|
| 2026-05-08 04:19 | 26.97085 | 93.64294 | 362 ft | 0 kts | 346° |
| 2026-05-08 04:37 | 26.97076 | 93.64296 | 359 ft | 4 kts | 346° |
| 2026-05-08 04:37 | 26.97050 | 93.64304 | 358 ft | 4 kts | 349° |
| 2026-05-08 04:38 | 26.97024 | 93.64305 | 361 ft | 4 kts | 14° |
| 2026-05-08 04:38 | 26.97004 | 93.64292 | 365 ft | 4 kts | 69° |
| 2026-05-08 04:38 | 26.97002 | 93.64287 | 365 ft | 0 kts | 76° |
| 2026-05-08 04:42 | 26.97003 | 93.64292 | 365 ft | 2 kts | 76° |
| 2026-05-08 04:43 | 26.97011 | 93.64326 | 362 ft | 6 kts | 76° |
| 2026-05-08 04:43 | 26.97025 | 93.64389 | 360 ft | 8 kts | 76° |
| 2026-05-08 04:43 | 26.97019 | 93.64450 | 360 ft | 10 kts | 140° |
| 2026-05-08 04:43 | 26.96940 | 93.64476 | 358 ft | 14 kts | 165° |
| 2026-05-08 04:44 | 26.96866 | 93.64482 | 362 ft | 11 kts | 218° |
| 2026-05-08 04:44 | 26.96838 | 93.64389 | 362 ft | 15 kts | 257° |
| 2026-05-08 04:44 | 26.96810 | 93.64265 | 362 ft | 18 kts | 256° |
| 2026-05-08 04:44 | 26.96779 | 93.64114 | 362 ft | 22 kts | 258° |
| 2026-05-08 04:45 | 26.96731 | 93.63942 | 361 ft | 25 kts | 252° |
| 2026-05-08 04:45 | 26.96700 | 93.63825 | 359 ft | 15 kts | 253° |
| 2026-05-08 04:45 | 26.96668 | 93.63696 | 365 ft | 19 kts | 255° |
| 2026-05-08 04:45 | 26.96641 | 93.63539 | 366 ft | 16 kts | 260° |
| 2026-05-08 04:46 | 26.96620 | 93.63425 | 361 ft | 17 kts | 254° |
| 2026-05-08 04:46 | 26.96586 | 93.63285 | 360 ft | 20 kts | 256° |
| 2026-05-08 04:46 | 26.96555 | 93.63140 | 360 ft | 18 kts | 257° |
| 2026-05-08 04:46 | 26.96522 | 93.62992 | 363 ft | 17 kts | 253° |
| 2026-05-08 04:47 | 26.96475 | 93.62893 | 360 ft | 9 kts | 239° |
| 2026-05-08 04:47 | 26.96492 | 93.62885 | 362 ft | 4 kts | 40° |
| 2026-05-08 04:47 | 26.96504 | 93.62926 | 362 ft | 0 kts | 77° |
| 2026-05-08 04:48 | 26.96513 | 93.62970 | 361 ft | 17 kts | 77° |
| 2026-05-08 04:48 | 26.96597 | 93.63350 | 362 ft | 84 kts | 75° |
| 2026-05-08 04:48 | 26.96796 | 93.64192 | 363 ft | 142 kts | 75° |
| 2026-05-08 04:49 | 26.97065 | 93.65423 | 884 ft | 167 kts | 77° |
| 2026-05-08 04:49 | 26.97332 | 93.66668 | 1545 ft | 168 kts | 75° |
| 2026-05-08 04:49 | 26.97600 | 93.68030 | 1843 ft | 191 kts | 86° |
| 2026-05-08 04:49 | 26.97158 | 93.69472 | 2092 ft | 216 kts | 130° |
| 2026-05-08 04:50 | 26.95767 | 93.70325 | 2388 ft | 243 kts | 167° |
| 2026-05-08 04:50 | 26.94026 | 93.70490 | 2858 ft | 265 kts | 180° |
| 2026-05-08 04:50 | 26.92151 | 93.70407 | 3720 ft | 273 kts | 183° |
| 2026-05-08 04:50 | 26.90240 | 93.70275 | 4676 ft | 277 kts | 182° |
| 2026-05-08 04:51 | 26.88297 | 93.70169 | 5626 ft | 281 kts | 181° |
| 2026-05-08 04:51 | 26.86326 | 93.70109 | 6553 ft | 285 kts | 180° |
| 2026-05-08 04:51 | 26.84332 | 93.70089 | 7456 ft | 289 kts | 179° |
| 2026-05-08 04:51 | 26.82307 | 93.70099 | 8341 ft | 293 kts | 179° |
| 2026-05-08 04:52 | 26.80258 | 93.70127 | 9191 ft | 296 kts | 178° |
| 2026-05-08 04:52 | 26.78177 | 93.70163 | 10010 ft | 302 kts | 178° |
| 2026-05-08 04:52 | 26.76000 | 93.70204 | 10330 ft | 324 kts | 178° |
| 2026-05-08 04:52 | 26.73691 | 93.70247 | 10837 ft | 337 kts | 178° |
| 2026-05-08 04:53 | 26.71360 | 93.70288 | 11527 ft | 342 kts | 178° |
| 2026-05-08 04:53 | 26.68967 | 93.70330 | 12247 ft | 346 kts | 178° |
| 2026-05-08 04:53 | 26.66548 | 93.70368 | 12963 ft | 350 kts | 180° |
| 2026-05-08 04:53 | 26.64102 | 93.69952 | 13626 ft | 355 kts | 198° |
| 2026-05-08 04:54 | 26.61932 | 93.68720 | 14276 ft | 358 kts | 217° |
| 2026-05-08 04:54 | 26.60179 | 93.66741 | 14907 ft | 362 kts | 235° |
| 2026-05-08 04:54 | 26.59069 | 93.64223 | 15528 ft | 364 kts | 253° |
| 2026-05-08 04:54 | 26.58428 | 93.61475 | 16151 ft | 367 kts | 256° |
| 2026-05-08 04:55 | 26.57805 | 93.58693 | 16766 ft | 370 kts | 256° |
| 2026-05-08 04:55 | 26.57179 | 93.55889 | 17368 ft | 374 kts | 256° |
| 2026-05-08 04:55 | 26.56543 | 93.53062 | 17958 ft | 377 kts | 256° |
| 2026-05-08 04:55 | 26.55896 | 93.50209 | 18529 ft | 381 kts | 256° |
| 2026-05-08 04:56 | 26.55237 | 93.47328 | 19097 ft | 384 kts | 256° |
| 2026-05-08 04:56 | 26.54568 | 93.44427 | 19642 ft | 387 kts | 256° |
| 2026-05-08 04:56 | 26.53895 | 93.41504 | 20189 ft | 390 kts | 256° |
| 2026-05-08 04:56 | 26.53218 | 93.38557 | 20711 ft | 394 kts | 256° |
| 2026-05-08 04:57 | 26.52531 | 93.35585 | 21222 ft | 397 kts | 256° |
| 2026-05-08 04:57 | 26.51835 | 93.32596 | 21720 ft | 400 kts | 256° |
| 2026-05-08 04:57 | 26.51130 | 93.29579 | 22192 ft | 403 kts | 256° |
| 2026-05-08 04:57 | 26.50419 | 93.26542 | 22683 ft | 406 kts | 256° |
| 2026-05-08 04:58 | 26.49704 | 93.23485 | 23148 ft | 409 kts | 256° |
| 2026-05-08 04:58 | 26.48985 | 93.20393 | 23627 ft | 412 kts | 256° |
| 2026-05-08 04:58 | 26.48506 | 93.18334 | 23928 ft | 414 kts | 256° |